Latest Coastal Weather Observations for Tasman Island

IDT60701

Issued at 8:32 am EST Monday 27 June 2016 (issued every 10 minutes, with the page automatically refreshed every 10 minutes)

About coastal observations | Map of coastal stations | Coastal observations for TAS | Marine services | Other Formats
Station Details ID: 094155 Name: TASMAN ISLAND Lat: -43.24 Lon: 148.00 Height: 240.0 m
Data from the previous 72 hours. | See also: Recent months at Tasman Island
Date/Time
EST
Temp

°C
Wind Pressure Rain
since 9am
mm
Weather Cloud Vis
km
Sea
Height
m
Swell
Dir
 
Speed
knots
Gust
knots
hPa Trend Height
m
Period
s
Dir
27/08:30am 8.2 NW 5 12 1010.6 - 0.0 - - - - - - -
27/08:00am 7.9 NW 4 12 1010.3 - 0.0 - - - - - - -
27/07:30am 7.5 WNW 3 11 1010.1 - 0.0 - - - - - - -
27/07:00am 7.8 WNW 5 13 1009.8 - 0.0 - - - - - - -
27/06:30am 7.7 WNW 4 10 1009.4 - 0.0 - - - - - - -
27/06:00am 7.7 WNW 3 11 1009.4 - 0.0 - - - - - - -
27/05:30am 8.0 WNW 6 15 1008.9 - 0.0 - - - - - - -
27/05:00am 8.1 NW 6 13 1008.9 - 0.0 - - - - - - -
27/04:30am 8.3 NW 7 19 1008.8 - 0.0 - - - - - - -
27/04:00am 8.5 WNW 6 16 1008.9 - 0.0 - - - - - - -
27/03:30am 8.9 WNW 3 11 1008.8 - 0.0 - - - - - - -
27/03:00am 8.8 SSE 3 10 1008.9 - 0.0 - - - - - - -
27/02:30am 8.7 W 4 13 1008.9 - 0.0 - - - - - - -
27/02:00am 8.7 W 4 11 1008.6 - 0.0 - - - - - - -
27/01:30am 8.9 WNW 10 17 1008.5 - 0.0 - - - - - - -
27/01:00am 9.1 WNW 13 24 1008.3 - 0.0 - - - - - - -
27/12:30am 9.3 WNW 14 25 1008.3 - 0.0 - - - - - - -
27/12:00am 9.3 WNW 11 17 1008.4 - 0.0 - - - - - - -
 
Date/Time
EST
Temp

°C
Wind Pressure Rain
since 9am
mm
Weather Cloud Vis
km
Sea
Height
m
Swell
Dir
 
Speed
knots
Gust
knots
hPa Trend Height
m
Period
s
Dir
26/11:41pm 9.4 WNW 15 26 1008.1 - 0.0 - - - - - - -
26/11:30pm 9.5 WNW 12 30 1008.1 - 0.0 - - - - - - -
26/11:00pm 9.4 NW 12 21 1008.4 - 0.0 - - - - - - -
26/10:30pm 9.2 NNW 10 17 1008.5 - 0.0 - - - - - - -
26/10:00pm 9.1 NNW 12 18 1008.6 - 0.0 - - - - - - -
26/09:30pm 9.0 NW 15 27 1008.7 - 0.0 - - - - - - -
26/09:26pm 9.0 NNW 15 27 1008.7 - 0.0 - - - - - - -
26/09:00pm 9.0 NNW 16 24 1009.0 - 0.0 - - - - - - -
26/08:30pm 9.5 NNW 14 21 1009.1 - 0.0 - - - - - - -
26/08:00pm 9.7 NW 19 25 1009.3 - 0.0 - - - - - - -
26/07:30pm 10.3 NW 19 27 1009.4 - 0.0 - - - - - - -
26/07:00pm 9.7 NNW 13 19 1009.5 - 0.0 - - - - - - -
26/06:30pm 10.3 NW 18 25 1009.5 - 0.0 - - - - - - -
26/06:00pm 10.4 NW 18 24 1009.5 - 0.0 - - - - - - -
26/05:30pm 10.3 NW 14 19 1009.6 - 0.0 - - - - - - -
26/05:00pm 10.3 NW 18 25 1009.6 - 0.0 - - - - - - -
26/04:30pm 10.5 NW 16 25 1009.6 - 0.0 - - - - - - -
26/04:00pm 10.7 NW 19 25 1009.8 - 0.0 - - - - - - -
26/03:30pm 10.5 NW 16 23 1010.1 - 0.0 - - - - - - -
26/03:00pm 10.5 NW 13 19 1010.3 - 0.0 - - - - - - -
26/02:30pm 10.3 NNW 14 22 1010.5 - 0.0 - - - - - - -
26/02:00pm 10.1 NNW 11 18 1010.7 - 0.0 - - - - - - -
26/01:30pm 9.9 NNW 10 16 1011.1 - 0.0 - - - - - - -
26/01:00pm 9.9 NW 11 17 1011.5 - 0.0 - - - - - - -
26/12:30pm 9.9 NNW 11 16 1011.9 - 0.0 - - - - - - -
26/12:00pm 10.3 NW 7 13 1012.5 - 0.0 - - - - - - -
26/11:30am 11.3 NNW 10 15 1013.0 - 0.0 - - - - - - -
26/11:00am 11.1 NW 10 15 1013.4 - 0.0 - - - - - - -
26/10:30am 10.7 NNW 7 12 1014.0 - 0.0 - - - - - - -
26/10:00am 9.8 NNW 7 10 1014.2 - 0.0 - - - - - - -
26/09:30am 8.7 NNW 5 7 1014.3 - 0.0 - - - - - - -
26/09:00am 9.9 NW 9 11 1014.3 - 1.4 - - - - - - -
26/08:30am 9.5 WNW 7 14 1014.4 - 1.4 - - - - - - -
26/08:00am 9.0 WNW 5 13 1014.3 - 1.4 - - - - - - -
26/07:30am 8.4 WNW 6 11 1014.4 - 1.4 - - - - - - -
26/07:00am 8.4 WNW 9 16 1014.4 - 1.4 - - - - - - -
26/06:30am 8.4 WNW 5 11 1014.2 - 1.4 - - - - - - -
26/06:00am 8.3 WNW 5 13 1014.1 - 1.4 - - - - - - -
26/05:30am 8.3 NW 9 16 1013.9 - 1.4 - - - - - - -
26/05:00am 8.2 WNW 8 16 1013.8 - 1.4 - - - - - - -
26/04:30am 8.0 WNW 5 12 1013.8 - 1.4 - - - - - - -
26/04:00am 8.1 NW 4 14 1013.9 - 1.4 - - - - - - -
26/03:30am 7.9 WNW 3 11 1013.9 - 1.4 - - - - - - -
26/03:00am 8.2 W 5 13 1014.2 - 1.4 - - - - - - -
26/02:30am 8.2 WNW 6 13 1014.2 - 1.4 - - - - - - -
26/02:00am 8.2 WNW 6 17 1014.3 - 1.4 - - - - - - -
26/01:30am 8.1 WNW 8 15 1014.3 - 1.4 - - - - - - -
26/01:00am 8.0 WNW 5 14 1014.5 - 1.4 - - - - - - -
26/12:30am 7.9 WNW 5 13 1014.6 - 1.4 - - - - - - -
26/12:00am 7.6 WNW 5 13 1015.1 - 1.4 - - - - - - -
 
Date/Time
EST
Temp

°C
Wind Pressure Rain
since 9am
mm
Weather Cloud Vis
km
Sea
Height
m
Swell
Dir
 
Speed
knots
Gust
knots
hPa Trend Height
m
Period
s
Dir
25/11:30pm 7.7 W 7 14 1015.1 - 1.4 - - - - - - -
25/11:00pm 7.4 NW 2 9 1015.1 - 1.4 - - - - - - -
25/10:30pm 7.4 NW 2 9 1015.3 - 1.4 - - - - - - -
25/10:00pm 7.7 W 3 12 1015.5 - 1.4 - - - - - - -
25/09:30pm 8.0 WNW 7 15 1015.7 - 1.4 - - - - - - -
25/09:00pm 7.7 W 6 13 1015.7 - 1.4 - - - - - - -
25/08:30pm 7.5 W 3 11 1015.8 - 1.4 - - - - - - -
25/08:00pm 7.5 NNW 3 9 1016.0 - 1.4 - - - - - - -
25/07:30pm 7.3 WNW 3 11 1016.0 - 1.4 - - - - - - -
25/07:00pm 7.5 WSW 5 10 1016.2 - 1.4 - - - - - - -
25/06:30pm 7.2 WNW 6 13 1016.2 - 1.4 - - - - - - -
25/06:00pm 7.3 W 4 10 1016.1 - 1.4 - - - - - - -
25/05:30pm 7.1 W 4 11 1016.0 - 1.4 - - - - - - -
25/05:00pm 7.2 NNW 5 13 1015.9 - 1.4 - - - - - - -
25/04:30pm 7.5 W 5 16 1015.7 - 1.4 - - - - - - -
25/04:00pm 8.0 W 4 11 1015.7 - 1.4 - - - - - - -
25/03:30pm 8.0 N 4 14 1015.5 - 1.4 - - - - - - -
25/03:00pm 7.8 NW 4 14 1015.3 - 1.4 - - - - - - -
25/02:30pm 7.5 WNW 6 16 1015.3 - 1.4 - - - - - - -
25/02:00pm 7.3 SW 6 21 1015.3 - 1.4 - - - - - - -
25/01:30pm 7.0 WSW 5 15 1015.3 - 1.4 - - - - - - -
25/01:00pm 6.1 W 6 22 1015.5 - 1.4 - - - - - - -
25/12:30pm 6.3 WSW 10 23 1015.4 - 1.2 - - - - - - -
25/12:00pm 6.4 W 5 14 1015.7 - 1.0 - - - - - - -
25/11:30am 6.6 NNW 6 22 1015.7 - 1.0 - - - - - - -
25/11:00am 6.6 SW 7 17 1015.7 - 1.0 - - - - - - -
25/10:30am 5.9 N 5 14 1015.7 - 1.0 - - - - - - -
25/10:00am 5.3 WSW 8 23 1015.9 - 1.0 - - - - - - -
25/09:30am 4.8 SW 9 22 1015.4 - 0.8 - - - - - - -
25/09:00am 5.6 SSW 11 29 1014.7 - 5.4 Recent precip. - - - - - -
25/08:30am 4.5 SW 14 30 1014.9 - 5.4 - - - - - - -
25/08:11am 4.3 SSW 15 26 1014.6 - 4.8 - - - - - - -
25/08:00am 4.3 SSW 9 29 1014.3 - 4.6 - - - - - - -
25/07:30am 4.6 SW 15 24 1014.2 - 4.6 - - - - - - -
25/07:03am 4.1 S 10 30 1014.0 - 4.0 - - - - - - -
25/07:00am 4.7 SSW 6 26 1013.8 - 3.8 - - - - - - -
25/06:30am 4.3 SW 9 26 1013.4 - 3.6 - - - - - - -
25/06:09am 4.1 SSE 10 31 1013.2 - 3.4 - - - - - - -
25/06:00am 4.6 SSW 9 21 1012.8 - 2.8 Rain - - - - - -
25/05:30am 4.6 W 9 22 1012.5 - 2.6 - - - - - - -
25/05:00am 4.5 WSW 14 28 1012.1 - 2.4 - - - - - - -
25/04:30am 5.2 W 7 19 1011.8 - 2.4 - - - - - - -
25/04:00am 5.3 W 7 25 1011.4 - 2.4 - - - - - - -
25/03:30am 5.2 WSW 10 25 1011.2 - 2.4 - - - - - - -
25/03:00am 4.6 SW 12 26 1011.0 - 2.4 - - - - - - -
25/02:46am 5.0 W 9 28 1010.7 - 2.4 - - - - - - -
25/02:30am 5.1 WSW 9 26 1010.9 - 2.4 - - - - - - -
25/02:00am 4.9 SW 12 24 1010.6 - 2.4 - - - - - - -
25/01:30am 5.0 WSW 12 29 1009.8 - 2.4 - - - - - - -
25/01:00am 4.7 SW 5 16 1009.5 - 2.4 - - - - - - -
25/12:30am 4.8 SSW 5 14 1009.2 - 2.4 - - - - - - -
25/12:00am 4.2 ENE 7 15 1008.6 - 2.4 - - - - - - -
 
Date/Time
EST
Temp

°C
Wind Pressure Rain
since 9am
mm
Weather Cloud Vis
km
Sea
Height
m
Swell
Dir
 
Speed
knots
Gust
knots
hPa Trend Height
m
Period
s
Dir
24/11:30pm 5.1 WSW 10 27 1008.6 - 2.4 - - - - - - -
24/11:00pm 5.0 ENE 7 24 1008.1 - 2.4 - - - - - - -
24/10:30pm 5.1 NNE 7 23 1007.7 - 2.2 - - - - - - -
24/10:00pm 4.8 N 5 17 1007.7 - 2.2 - - - - - - -
24/09:30pm 5.2 WSW 6 20 1007.5 - 2.2 - - - - - - -
24/09:00pm 5.0 WSW 10 22 1007.0 - 2.2 - - - - - - -
24/08:30pm 4.8 SW 10 27 1006.4 - 2.2 - - - - - - -
24/08:00pm 4.4 SSW 13 22 1006.2 - 2.2 - - - - - - -
24/07:30pm 3.5 SSW 16 33 1005.5 - 1.6 - - - - - - -
24/07:26pm 5.0 SSW 12 27 1005.5 - 1.0 - - - - - - -
24/07:00pm 4.9 SSW 11 28 1004.9 - 1.0 - - - - - - -
24/06:34pm 4.4 SW 16 27 1004.3 - 1.0 - - - - - - -
24/06:30pm 4.2 SW 18 27 1004.2 - 0.8 - - - - - - -
24/06:07pm 5.2 SW 12 37 1003.4 - 0.2 - - - - - - -
24/06:00pm 5.7 WSW 10 21 1003.4 - 0.2 - - - - - - -
24/05:30pm 5.8 WSW 11 22 1002.9 - 0.2 - - - - - - -
24/05:00pm 5.9 SW 9 23 1002.3 - 0.2 - - - - - - -
24/04:30pm 5.7 SW 12 27 1001.4 - 0.0 - - - - - - -
24/04:00pm 5.5 SW 13 26 1000.8 - 0.0 - - - - - - -
24/03:53pm 6.1 SSW 15 37 1000.5 - 0.0 - - - - - - -
24/03:47pm 6.2 SW 10 37 1000.3 - 0.0 - - - - - - -
24/03:31pm 6.2 SW 15 26 1000.3 - 0.0 - - - - - - -
24/03:30pm 6.2 SW 15 25 1000.3 - 0.0 - - - - - - -
24/03:00pm 7.2 SW 8 19 999.9 - 0.0 - - - - - - -
24/02:30pm 7.7 WSW 5 13 999.4 - 0.0 - - - - - - -
24/02:00pm 7.3 NNW 4 13 999.1 - 0.0 - - - - - - -
24/01:30pm 7.2 WNW 5 14 998.9 - 0.0 - - - - - - -
24/01:00pm 7.2 N 4 11 998.5 - 0.0 - - - - - - -
24/12:30pm 6.9 WNW 6 16 998.1 - 0.0 - - - - - - -
24/12:00pm 6.2 NW 6 14 997.9 - 0.0 - - - - - - -
24/11:30am 6.4 NNW 3 11 997.8 - 0.0 - - - - - - -
24/11:00am 5.6 WSW 4 12 997.6 - 0.0 - - - - - - -
24/10:30am 5.4 WSW 5 11 997.4 - 0.0 - - - - - - -
24/10:00am 5.8 W 3 11 996.9 - 0.0 - - - - - - -
24/09:30am 5.9 WNW 3 9 996.7 - 0.0 - - - - - - -
24/09:00am 5.7 SSE 3 7 996.2 - - - - - - - - -

Other Formats:

Comma delimited format used in spreadsheet applications
http://www.bom.gov.au/fwo/IDT60701/IDT60701.95986.axf

JavaScript Object Notation format (JSON) in row-major order
http://www.bom.gov.au/fwo/IDT60701/IDT60701.95986.json